createdAt,value
2023-05-23T00:00:52.615Z,96469.84
2023-05-23T00:03:25.332Z,96475.69
2023-05-23T00:05:55.298Z,96470.53
2023-05-23T00:08:25.371Z,96469.72
2023-05-23T00:10:54.993Z,96472.13
2023-05-23T00:13:24.402Z,96471.34
2023-05-23T00:15:52.337Z,96475.47
2023-05-23T00:18:24.965Z,96475.13
2023-05-23T00:20:54.372Z,96479.03
2023-05-23T00:23:25.419Z,96477.91
2023-05-23T00:25:54.536Z,96489.03
2023-05-23T00:28:22.821Z,96482.97
2023-05-23T00:30:53.170Z,96491.09
2023-05-23T00:33:22.253Z,96483.75
2023-05-23T00:35:50.208Z,96487.91
2023-05-23T00:38:23.115Z,96484.13
2023-05-23T00:40:53.878Z,96491.38
2023-05-23T00:43:23.056Z,96494.00
2023-05-23T00:45:50.957Z,96484.94
2023-05-23T00:48:20.811Z,96475.75
2023-05-23T00:50:49.540Z,96482.88
2023-05-23T00:53:21.751Z,96487.22
2023-05-23T00:55:51.340Z,96486.44
2023-05-23T00:58:20.834Z,96481.38
2023-05-23T01:00:54.860Z,96488.59
2023-05-23T01:03:24.028Z,96488.94
2023-05-23T01:05:52.113Z,96489.41
2023-05-23T01:08:24.172Z,96479.53
2023-05-23T01:10:56.112Z,96487.00
2023-05-23T01:13:33.883Z,96487.22
2023-05-23T01:16:14.738Z,96490.56
2023-05-23T01:18:54.759Z,96490.78
2023-05-23T01:21:27.869Z,96496.28
2023-05-23T01:24:23.165Z,96491.38
2023-05-23T01:27:06.931Z,96490.56
2023-05-23T01:29:40.006Z,96488.84
2023-05-23T01:32:11.610Z,96480.94
2023-05-23T01:34:41.216Z,96484.38
2023-05-23T01:37:20.960Z,96489.44
2023-05-23T01:39:50.993Z,96489.91
2023-05-23T01:42:29.548Z,96493.25
2023-05-23T01:45:00.330Z,96500.91
2023-05-23T01:47:34.387Z,96499.19
2023-05-23T01:50:11.435Z,96500.34
2023-05-23T01:52:41.045Z,96500.00
2023-05-23T01:55:23.790Z,96503.22
2023-05-23T01:57:57.783Z,96498.84
2023-05-23T02:00:28.427Z,96498.50
2023-05-23T02:02:58.197Z,96499.28
2023-05-23T02:05:30.399Z,96504.69
2023-05-23T02:08:03.647Z,96503.78
2023-05-23T02:10:36.752Z,96514.34
2023-05-23T02:13:08.173Z,96520.53
2023-05-23T02:15:44.421Z,96524.06
2023-05-23T02:18:13.596Z,96517.75
2023-05-23T02:20:43.224Z,96515.72
2023-05-23T02:23:14.116Z,96514.94
2023-05-23T02:25:45.295Z,96518.38
2023-05-23T02:28:15.973Z,96516.53
2023-05-23T02:30:54.146Z,96518.16
2023-05-23T02:33:26.304Z,96510.63
2023-05-23T02:35:55.456Z,96515.91
2023-05-23T02:38:23.997Z,96516.75
2023-05-23T02:40:54.254Z,96516.75
2023-05-23T02:43:29.731Z,96525.25
2023-05-23T02:46:00.285Z,96513.97
2023-05-23T02:48:30.122Z,96511.22
2023-05-23T02:51:00.097Z,96519.00
2023-05-23T02:53:34.230Z,96518.69
2023-05-23T02:56:05.251Z,96508.34
2023-05-23T02:58:40.100Z,96517.06
2023-05-23T03:01:12.733Z,96510.75
2023-05-23T03:03:42.667Z,96506.63
2023-05-23T03:06:14.921Z,96513.25
2023-05-23T03:08:51.616Z,96508.47
2023-05-23T03:11:21.473Z,96513.94
2023-05-23T03:13:52.851Z,96516.59
2023-05-23T03:16:26.014Z,96512.00
2023-05-23T03:18:56.152Z,96507.53
2023-05-23T03:21:24.407Z,96515.00
2023-05-23T03:23:52.373Z,96522.13
2023-05-23T03:26:23.985Z,96521.28
2023-05-23T03:28:52.996Z,96528.97
2023-05-23T03:31:27.341Z,96531.41
2023-05-23T03:34:12.658Z,96527.72
2023-05-23T03:36:41.312Z,96524.50
2023-05-23T03:39:09.230Z,96524.97
2023-05-23T03:41:39.121Z,96522.91
2023-05-23T03:44:10.491Z,96530.34
2023-05-23T03:46:42.474Z,96529.91
2023-05-23T03:49:10.470Z,96539.41
2023-05-23T03:51:38.448Z,96537.25
2023-05-23T03:54:06.393Z,96548.22
2023-05-23T03:56:34.780Z,96540.31
2023-05-23T03:59:02.519Z,96541.69
2023-05-23T04:01:30.222Z,96542.75
2023-05-23T04:04:00.443Z,96551.69
2023-05-23T04:06:31.281Z,96546.63
2023-05-23T04:08:58.984Z,96545.84
2023-05-23T04:11:26.718Z,96550.88
2023-05-23T04:13:54.436Z,96542.75
2023-05-23T04:16:24.056Z,96542.84
2023-05-23T04:18:52.042Z,96548.00
2023-05-23T04:21:21.166Z,96544.78
2023-05-23T04:23:48.893Z,96544.66
2023-05-23T04:26:16.480Z,96539.38
2023-05-23T04:28:46.204Z,96539.72
2023-05-23T04:31:13.830Z,96541.91
2023-05-23T04:33:41.866Z,96542.25
2023-05-23T04:36:11.451Z,96540.78
2023-05-23T04:38:41.257Z,96547.91
2023-05-23T04:41:10.379Z,96550.53
2023-05-23T04:43:42.392Z,96558.19
2023-05-23T04:46:10.959Z,96558.88
2023-05-23T04:48:39.366Z,96556.03
2023-05-23T04:51:07.885Z,96562.91
2023-05-23T04:53:36.901Z,96561.09
2023-05-23T04:56:06.136Z,96567.28
2023-05-23T04:58:33.856Z,96565.22
2023-05-23T05:01:01.532Z,96569.91
2023-05-23T05:03:29.130Z,96569.59
2023-05-23T05:05:57.162Z,96567.16
2023-05-23T05:08:24.759Z,96572.44
2023-05-23T05:10:52.300Z,96566.13
2023-05-23T05:13:21.222Z,96571.97
2023-05-23T05:15:48.798Z,96582.53
2023-05-23T05:18:16.808Z,96578.88
2023-05-23T05:20:44.365Z,96580.13
2023-05-23T05:23:12.048Z,96579.09
2023-05-23T05:25:41.249Z,96578.06
2023-05-23T05:28:09.088Z,96586.53
2023-05-23T05:30:38.814Z,96578.88
2023-05-23T05:33:07.730Z,96579.31
2023-05-23T05:35:35.745Z,96585.97
2023-05-23T05:38:04.797Z,96585.16
2023-05-23T05:40:32.663Z,96582.97
2023-05-23T05:43:00.272Z,96587.69
2023-05-23T05:45:27.833Z,96596.16
2023-05-23T05:47:56.811Z,96589.41
2023-05-23T05:50:24.543Z,96596.28
2023-05-23T05:52:52.094Z,96599.38
2023-05-23T05:55:19.790Z,96594.69
2023-05-23T05:57:47.379Z,96597.34
2023-05-23T06:00:16.062Z,96601.22
2023-05-23T06:02:44.192Z,96604.28
2023-05-23T06:05:13.320Z,96602.91
2023-05-23T06:07:41.853Z,96605.34
2023-05-23T06:10:12.773Z,96601.88
2023-05-23T06:12:40.653Z,96595.59
2023-05-23T06:15:09.592Z,96603.03
2023-05-23T06:17:37.268Z,96606.03
2023-05-23T06:20:05.926Z,96605.81
2023-05-23T06:22:35.024Z,96600.31
2023-05-23T06:25:02.626Z,96594.81
2023-05-23T06:27:30.173Z,96590.13
2023-05-23T06:29:57.724Z,96595.38
2023-05-23T06:32:25.459Z,96589.09
2023-05-23T06:34:53.078Z,96598.59
2023-05-23T06:37:20.610Z,96595.28
2023-05-23T06:39:49.511Z,96598.50
2023-05-23T06:42:17.133Z,96602.50
2023-05-23T06:44:44.724Z,96607.00
2023-05-23T06:47:12.349Z,96601.94
2023-05-23T06:49:39.931Z,96605.41
2023-05-23T06:52:07.487Z,96608.25
2023-05-23T06:54:35.095Z,96609.53
2023-05-23T06:57:04.085Z,96612.38
2023-05-23T06:59:31.627Z,96620.50
2023-05-23T07:01:59.423Z,96618.13
2023-05-23T07:04:26.968Z,96622.94
2023-05-23T07:06:54.735Z,96631.41
2023-05-23T07:09:22.419Z,96626.25
2023-05-23T07:11:50.048Z,96633.28
2023-05-23T07:14:20.718Z,96626.09
2023-05-23T07:16:48.284Z,96630.25
2023-05-23T07:19:15.948Z,96630.94
2023-05-23T07:21:43.519Z,96636.56
2023-05-23T07:24:11.079Z,96640.56
2023-05-23T07:26:38.676Z,96641.38
2023-05-23T07:29:07.051Z,96641.94
2023-05-23T07:31:36.154Z,96641.47
2023-05-23T07:34:03.754Z,96644.13
2023-05-23T07:36:34.035Z,96638.06
2023-05-23T07:39:02.247Z,96644.13
2023-05-23T07:41:29.812Z,96642.63
2023-05-23T07:43:57.368Z,96652.19
2023-05-23T07:46:24.936Z,96646.31
2023-05-23T07:48:53.863Z,96652.63
2023-05-23T07:51:21.947Z,96654.25
2023-05-23T07:53:49.526Z,96651.59
2023-05-23T07:56:17.151Z,96650.56
2023-05-23T07:58:44.689Z,96653.19
2023-05-23T08:01:12.755Z,96652.63
2023-05-23T08:03:40.393Z,96650.22
2023-05-23T08:06:09.507Z,96651.72
2023-05-23T08:08:37.932Z,96643.00
2023-05-23T08:11:05.719Z,96646.75
2023-05-23T08:13:33.299Z,96642.19
2023-05-23T08:16:00.876Z,96642.56
2023-05-23T08:18:28.561Z,96644.72
2023-05-23T08:20:56.164Z,96644.81
2023-05-23T08:23:25.455Z,96645.63
2023-05-23T08:25:54.000Z,96652.16
2023-05-23T08:28:21.576Z,96648.59
2023-05-23T08:30:49.284Z,96652.38
2023-05-23T08:33:17.266Z,96651.31
2023-05-23T08:35:44.875Z,96664.09
2023-05-23T08:38:13.114Z,96659.13
2023-05-23T08:40:46.440Z,96672.69
2023-05-23T08:43:14.303Z,96671.97
2023-05-23T08:45:42.572Z,96669.19
2023-05-23T08:48:11.777Z,96670.91
2023-05-23T08:50:41.678Z,96663.19
2023-05-23T08:53:10.299Z,96665.19
2023-05-23T08:55:39.506Z,96660.81
2023-05-23T08:58:08.724Z,96667.81
2023-05-23T09:00:36.606Z,96667.31
2023-05-23T09:03:04.727Z,96673.91
2023-05-23T09:05:32.350Z,96670.06
2023-05-23T09:07:59.941Z,96674.84
2023-05-23T09:10:29.912Z,96678.97
2023-05-23T09:12:58.401Z,96675.03
2023-05-23T09:15:27.401Z,96682.97
2023-05-23T09:17:55.116Z,96678.41
2023-05-23T09:20:23.060Z,96694.16
2023-05-23T09:22:50.675Z,96692.25
2023-05-23T09:25:18.269Z,96693.66
2023-05-23T09:27:48.069Z,96700.66
2023-05-23T09:30:16.539Z,96705.66
2023-05-23T09:33:00.731Z,96704.50
2023-05-23T09:35:30.730Z,96700.38
2023-05-23T09:38:00.191Z,96695.50
2023-05-23T09:40:31.935Z,96700.22
2023-05-23T09:43:04.730Z,96696.53
2023-05-23T09:45:33.138Z,96693.88
2023-05-23T09:48:02.548Z,96691.78
2023-05-23T09:50:34.132Z,96694.53
2023-05-23T09:53:02.130Z,96690.94
2023-05-23T09:55:29.728Z,96686.66
2023-05-23T09:58:00.108Z,96693.03
2023-05-23T10:00:28.497Z,96694.28
2023-05-23T10:03:01.900Z,96704.94
2023-05-23T10:05:36.287Z,96703.34
2023-05-23T10:08:10.710Z,96699.09
2023-05-23T10:11:22.403Z,96709.28
2023-05-23T10:13:51.195Z,96706.25
2023-05-23T10:32:14.774Z,96699.81
2023-05-23T11:02:01.309Z,96711.06
2023-05-23T11:06:03.541Z,96718.88
2023-05-23T11:51:38.095Z,96733.16
2023-05-23T11:54:07.890Z,96731.75
2023-05-23T11:56:41.166Z,96725.34
2023-05-23T11:59:09.034Z,96727.75
2023-05-23T12:01:38.483Z,96730.16
2023-05-23T12:04:12.624Z,96723.97
2023-05-23T12:06:41.608Z,96728.69
2023-05-23T12:09:12.607Z,96723.50
2023-05-23T12:11:41.445Z,96732.81
2023-05-23T12:14:09.249Z,96719.81
2023-05-23T12:16:37.769Z,96728.31
2023-05-23T12:19:07.538Z,96717.50
2023-05-23T12:21:45.698Z,96718.63
2023-05-23T12:24:17.236Z,96713.16
2023-05-23T12:26:49.374Z,96716.78
2023-05-23T12:29:17.742Z,96708.97
2023-05-23T12:31:45.455Z,96708.81
2023-05-23T12:34:14.736Z,96710.06
2023-05-23T12:36:49.054Z,96710.13
2023-05-23T12:39:25.766Z,96705.13
2023-05-23T12:41:53.543Z,96689.78
2023-05-23T12:44:21.126Z,96700.41
2023-05-23T12:46:49.215Z,96701.44
2023-05-23T12:49:16.989Z,96706.91
2023-05-23T12:51:44.738Z,96694.72
2023-05-23T12:54:12.337Z,96704.50
2023-05-23T12:56:41.358Z,96698.88
2023-05-23T12:59:08.877Z,96700.97
2023-05-23T13:01:36.905Z,96699.03
2023-05-23T13:04:04.570Z,96700.38
2023-05-23T13:06:33.392Z,96705.53
2023-05-23T13:09:01.888Z,96707.22
2023-05-23T13:11:31.132Z,96704.31
2023-05-23T13:14:00.125Z,96704.63
2023-05-23T13:16:27.779Z,96704.63
2023-05-23T13:18:55.599Z,96708.88
2023-05-23T13:21:23.299Z,96711.63
2023-05-23T13:23:50.898Z,96713.72
2023-05-23T13:26:18.433Z,96702.56
2023-05-23T13:28:46.029Z,96708.09
2023-05-23T13:31:15.096Z,96717.28
2023-05-23T13:33:42.928Z,96716.09
2023-05-23T13:36:10.473Z,96713.88
2023-05-23T13:38:38.443Z,96717.09
2023-05-23T13:41:06.030Z,96720.22
2023-05-23T13:43:33.557Z,96723.03
2023-05-23T13:46:02.032Z,96721.59
2023-05-23T13:48:30.990Z,96726.56
2023-05-23T13:50:58.865Z,96719.91
2023-05-23T13:53:26.478Z,96720.16
2023-05-23T13:55:54.810Z,96725.47
2023-05-23T13:58:22.368Z,96725.19
2023-05-23T14:00:49.942Z,96723.38
2023-05-23T14:03:19.299Z,96734.19
2023-05-23T14:05:48.494Z,96724.06
2023-05-23T14:08:16.293Z,96727.22
2023-05-23T14:10:44.069Z,96720.84
2023-05-23T14:13:12.014Z,96740.44
2023-05-23T14:15:42.195Z,96728.97
2023-05-23T14:18:10.143Z,96730.16
2023-05-23T14:20:37.697Z,96728.69
2023-05-23T14:23:06.552Z,96721.47
2023-05-23T14:25:34.116Z,96725.41
2023-05-23T14:28:01.726Z,96727.03
2023-05-23T14:30:29.368Z,96719.31
2023-05-23T14:32:56.998Z,96724.53
2023-05-23T14:35:25.785Z,96722.13
2023-05-23T14:37:53.338Z,96721.31
2023-05-23T14:40:22.194Z,96723.41
2023-05-23T14:42:49.717Z,96722.84
2023-05-23T14:45:18.961Z,96718.56
2023-05-23T14:47:46.881Z,96730.22
2023-05-23T14:50:14.524Z,96727.56
2023-05-23T14:52:42.087Z,96727.31
2023-05-23T14:55:09.871Z,96723.84
2023-05-23T14:57:39.273Z,96723.84
2023-05-23T15:00:08.245Z,96731.22
2023-05-23T15:02:35.861Z,96727.56
2023-05-23T15:05:03.554Z,96715.34
2023-05-23T15:07:31.220Z,96718.25
2023-05-23T15:09:58.846Z,96720.63
2023-05-23T15:12:26.610Z,96712.13
2023-05-23T15:15:02.938Z,96725.28
2023-05-23T15:17:31.114Z,96721.28
2023-05-23T15:19:58.988Z,96722.06
2023-05-23T15:24:59.432Z,96719.41
2023-05-23T15:27:27.028Z,96712.53
2023-05-23T15:29:55.895Z,96707.81
2023-05-23T15:32:23.573Z,96709.97
2023-05-23T15:34:51.412Z,96710.53
2023-05-23T15:37:19.171Z,96706.28
2023-05-23T15:39:46.981Z,96705.47
2023-05-23T15:42:14.626Z,96707.31
2023-05-23T15:44:42.232Z,96711.47
2023-05-23T15:47:11.257Z,96715.97
2023-05-23T15:49:38.808Z,96712.53
2023-05-23T15:52:06.549Z,96718.41
2023-05-23T15:54:34.107Z,96714.47
2023-05-23T15:57:01.701Z,96724.00
2023-05-23T15:59:29.213Z,96715.19
2023-05-23T16:01:57.088Z,96715.03
2023-05-23T16:04:26.086Z,96708.38
2023-05-23T16:06:53.641Z,96710.22
2023-05-23T16:09:21.154Z,96711.81
2023-05-23T16:11:48.706Z,96706.53
2023-05-23T16:14:16.284Z,96705.97
2023-05-23T16:16:44.146Z,96710.16
2023-05-23T16:19:11.832Z,96712.22
2023-05-23T16:21:40.815Z,96719.09
2023-05-23T16:24:08.396Z,96708.53
2023-05-23T16:26:36.126Z,96704.50
2023-05-23T16:29:03.659Z,96700.50
2023-05-23T16:31:31.456Z,96704.19
2023-05-23T16:33:59.549Z,96708.91
2023-05-23T16:36:28.483Z,96709.16
2023-05-23T16:38:57.981Z,96705.09
2023-05-23T16:41:25.585Z,96700.31
2023-05-23T16:43:53.121Z,96697.09
2023-05-23T16:46:22.214Z,96698.13
2023-05-23T16:48:50.315Z,96703.44
2023-05-23T16:51:17.916Z,96702.59
2023-05-23T16:53:45.577Z,96704.69
2023-05-23T16:56:14.638Z,96710.66
2023-05-23T17:01:24.691Z,96707.00
2023-05-23T17:03:52.576Z,96709.44
2023-05-23T17:06:20.389Z,96711.81
2023-05-23T17:08:47.955Z,96709.75
2023-05-23T17:11:16.960Z,96711.81
2023-05-23T17:13:44.524Z,96710.66
2023-05-23T17:16:12.513Z,96708.50
2023-05-23T17:18:40.132Z,96706.34
2023-05-23T17:21:07.678Z,96711.06
2023-05-23T17:23:35.203Z,96717.84
2023-05-23T17:26:02.802Z,96720.16
2023-05-23T17:28:31.689Z,96723.97
2023-05-23T17:30:59.357Z,96725.91
2023-05-23T17:33:26.929Z,96717.88
2023-05-23T17:35:54.509Z,96731.00
2023-05-23T17:38:22.046Z,96726.63
2023-05-23T17:40:49.627Z,96734.78
2023-05-23T17:46:38.549Z,96736.72
2023-05-23T17:49:07.203Z,96733.28
2023-05-23T17:51:34.798Z,96735.00
2023-05-23T17:56:50.613Z,96750.72
2023-05-23T17:59:21.257Z,96747.16
2023-05-23T18:01:53.793Z,96752.09
2023-05-23T18:04:26.749Z,96748.50
2023-05-23T18:06:59.639Z,96755.31
2023-05-23T18:09:33.578Z,96761.25
2023-05-23T18:12:04.483Z,96759.75
2023-05-23T18:14:36.696Z,96757.78
2023-05-23T18:17:12.382Z,96754.78
2023-05-23T18:19:47.040Z,96756.50
2023-05-23T18:22:16.511Z,96759.69
2023-05-23T18:24:44.343Z,96754.50
2023-05-23T18:27:11.900Z,96767.91
2023-05-23T18:29:39.794Z,96766.53
2023-05-23T18:32:08.880Z,96768.88
2023-05-23T18:34:36.456Z,96774.47
2023-05-23T18:37:04.032Z,96780.63
2023-05-23T18:39:31.595Z,96784.13
2023-05-23T18:41:59.515Z,96781.38
2023-05-23T18:44:27.334Z,96784.44
2023-05-23T18:46:55.627Z,96779.03
2023-05-23T18:49:28.769Z,96782.91
2023-05-23T18:52:00.007Z,96778.88
2023-05-23T18:54:34.619Z,96785.84
2023-05-23T18:57:04.826Z,96788.34
2023-05-23T18:59:36.431Z,96795.88
2023-05-23T19:02:05.296Z,96795.13
2023-05-23T19:04:35.375Z,96797.63
2023-05-23T19:07:04.536Z,96794.41
2023-05-23T19:09:36.242Z,96809.97
2023-05-23T19:12:03.952Z,96812.19
2023-05-23T19:14:31.692Z,96813.78
2023-05-23T19:17:00.096Z,96821.13
2023-05-23T19:19:30.592Z,96829.09
2023-05-23T19:22:00.797Z,96831.56
2023-05-23T19:24:28.379Z,96836.69
2023-05-23T19:26:56.328Z,96841.97
2023-05-23T19:29:23.887Z,96842.75
2023-05-23T19:31:51.515Z,96851.91
2023-05-23T19:34:19.050Z,96857.59
2023-05-23T19:37:04.290Z,96855.16
2023-05-23T19:39:33.812Z,96866.59
2023-05-23T19:42:01.410Z,96879.78
2023-05-23T19:44:29.033Z,96880.03
2023-05-23T19:47:24.946Z,96883.53
2023-05-23T19:53:21.365Z,96884.19
2023-05-23T19:56:01.850Z,96881.41
2023-05-23T19:58:40.707Z,96888.13
2023-05-23T20:01:13.899Z,96887.91
2023-05-23T20:03:48.434Z,96891.00
2023-05-23T20:06:39.656Z,96891.81
2023-05-23T20:09:25.322Z,96897.53
2023-05-23T20:12:03.671Z,96896.31
2023-05-23T20:14:39.962Z,96898.75
2023-05-23T20:17:26.935Z,96912.13
2023-05-23T20:22:53.708Z,96916.38
2023-05-23T20:25:31.788Z,96914.19
2023-05-23T20:28:18.799Z,96925.09
2023-05-23T20:30:55.924Z,96914.81
2023-05-23T20:33:41.556Z,96920.44
2023-05-23T20:36:09.651Z,96921.88
2023-05-23T20:38:37.236Z,96920.84
2023-05-23T20:41:06.662Z,96913.38
2023-05-23T20:43:37.128Z,96917.81
2023-05-23T20:46:06.127Z,96920.66
2023-05-23T20:48:34.029Z,96931.59
2023-05-23T20:51:02.024Z,96930.19
2023-05-23T20:53:29.926Z,96930.81
2023-05-23T20:55:57.524Z,96928.22
2023-05-23T20:58:25.123Z,96934.09
2023-05-23T21:00:54.376Z,96933.69
2023-05-23T21:03:22.208Z,96931.69
2023-05-23T21:05:49.879Z,96932.72
2023-05-23T21:08:17.489Z,96935.34
2023-05-23T21:10:48.048Z,96934.13
2023-05-23T21:13:17.466Z,96945.66
2023-05-23T21:15:45.101Z,96951.31
2023-05-23T21:18:14.043Z,96943.41
2023-05-23T21:20:41.902Z,96942.22
2023-05-23T21:23:09.596Z,96946.88
2023-05-23T21:25:37.243Z,96942.63
2023-05-23T21:28:04.857Z,96948.28
2023-05-23T21:30:32.546Z,96943.03
2023-05-23T21:33:00.453Z,96951.34
2023-05-23T21:35:29.444Z,96954.34
2023-05-23T21:37:57.833Z,96949.09
2023-05-23T21:40:26.807Z,96955.97
2023-05-23T21:42:54.400Z,96961.25
2023-05-23T21:45:22.216Z,96971.75
2023-05-23T21:47:49.834Z,96971.97
2023-05-23T21:50:17.575Z,96968.13
2023-05-23T21:52:46.537Z,96965.28
2023-05-23T21:55:14.157Z,96958.03
2023-05-23T21:57:41.772Z,96966.91
2023-05-23T22:00:12.527Z,96967.31
2023-05-23T22:02:41.563Z,96964.09
2023-05-23T22:05:09.442Z,96965.69
2023-05-23T22:07:37.006Z,96973.56
2023-05-23T22:10:06.732Z,96974.00
2023-05-23T22:12:34.287Z,96972.59
2023-05-23T22:15:01.869Z,96969.75
2023-05-23T22:17:29.636Z,96974.59
2023-05-23T22:19:58.106Z,96979.44
2023-05-23T22:22:25.822Z,96975.81
2023-05-23T22:24:53.678Z,96971.34
2023-05-23T22:27:22.660Z,96979.25
2023-05-23T22:29:50.223Z,96969.94
2023-05-23T22:32:17.861Z,96959.81
2023-05-23T22:34:46.107Z,96971.56
2023-05-23T22:37:15.687Z,96965.50
2023-05-23T22:39:43.390Z,96968.31
2023-05-23T22:42:10.994Z,96975.38
2023-05-23T22:44:39.969Z,96972.16
2023-05-23T22:47:10.198Z,96966.91
2023-05-23T22:49:37.861Z,96970.56
2023-05-23T22:52:06.264Z,96970.56
2023-05-23T22:54:33.823Z,96978.63
2023-05-23T22:57:01.356Z,96978.19
2023-05-23T22:59:30.814Z,96982.03
2023-05-23T23:01:59.845Z,96982.03
2023-05-23T23:04:30.871Z,96986.88
2023-05-23T23:06:59.180Z,96985.06
2023-05-23T23:09:27.184Z,96980.59
2023-05-23T23:11:55.478Z,96987.44
2023-05-23T23:14:23.080Z,96977.53
2023-05-23T23:16:50.686Z,96979.53
2023-05-23T23:19:19.798Z,96974.09
2023-05-23T23:21:47.387Z,96971.19
2023-05-23T23:24:15.022Z,96972.00
2023-05-23T23:26:42.600Z,96974.03
2023-05-23T23:29:10.381Z,96973.41
2023-05-23T23:31:38.000Z,96969.56
2023-05-23T23:34:05.630Z,96966.72
2023-05-23T23:36:34.578Z,96966.28
2023-05-23T23:39:02.191Z,96962.25
2023-05-23T23:41:29.805Z,96960.00
2023-05-23T23:43:57.367Z,96955.97
2023-05-23T23:46:24.978Z,96968.28
2023-05-23T23:48:52.663Z,96967.25
2023-05-23T23:51:20.340Z,96967.66
2023-05-23T23:53:51.652Z,96972.09
2023-05-23T23:56:22.208Z,96965.84
2023-05-23T23:58:49.870Z,96957.16
